METAR Formatted Surface Weather Observation
Issued by NWS

Home | Current Version | Previous Version | Text Only | Print | Product List | Glossary On
Versions: 1 2 3 4 5
000
SAUS46 KSGX 021656
MTRNJK
METAR KNJK 021656Z 10004KT 10SM FEW200 33/13 A2974 RMK AO2 SLP086
T03330128 $



USA.gov is the U.S. government's official web portal to all federal, state and local government web resources and services.